Time;durP1;ratioP1;P1;durP2;ratioP2;P2;SDS_P1;SDS_P2;PMS_P1;PMS_P2;Temp;Humidity;BMP_temperature;BMP_pressure;BME280_temperature;BME280_humidity;BME280_pressure;Samples;Min_cycle;Max_cycle;Signal;HPM_P1;HPM_P2
2022/12/25 00:01:41;;;;;;;0.00;0.00;;;8.60;99.90;;;8.62;100.00;100354.53;4933020;29;20275;-79
2022/12/25 00:04:08;;;;;;;0.10;0.10;;;8.60;99.90;;;8.63;100.00;100342.22;4932584;29;20267;-79
2022/12/25 00:06:35;;;;;;;0.03;0.03;;;8.60;99.90;;;8.62;100.00;100340.47;4933319;29;20230;-79
2022/12/25 00:09:03;;;;;;;0.35;0.35;;;8.60;99.90;;;8.63;100.00;100339.59;4943803;29;20318;-78
2022/12/25 00:11:30;;;;;;;0.32;0.32;;;8.60;99.90;;;8.58;100.00;100338.63;4932794;29;20238;-79
2022/12/25 00:13:57;;;;;;;0.10;0.10;;;8.60;99.90;;;8.52;100.00;100336.78;4932281;29;20281;-79
2022/12/25 00:16:25;;;;;;;0.10;0.10;;;8.50;99.90;;;8.59;100.00;100341.31;4915616;29;20242;-79
2022/12/25 00:18:55;;;;;;;0.10;0.10;;;8.60;99.90;;;8.54;100.00;100342.09;4937994;29;20226;-79
2022/12/25 00:21:22;;;;;;;0.55;0.55;;;8.60;99.90;;;8.58;100.00;100338.63;4932590;29;20246;-78
2022/12/25 00:23:57;;;;;;;0.00;0.00;;;8.60;99.90;;;8.61;100.00;100344.84;4943344;29;20230;-80
2022/12/25 00:26:26;;;;;;;0.10;0.10;;;8.60;99.90;;;8.55;100.00;100334.22;4951871;29;20233;-78
2022/12/25 00:28:55;;;;;;;0.15;0.15;;;8.60;99.90;;;8.56;100.00;100335.97;4951261;29;20285;-78
2022/12/25 00:31:23;;;;;;;0.10;0.10;;;8.60;99.90;;;8.61;100.00;100342.22;4945344;29;20238;-79
2022/12/25 00:33:52;;;;;;;0.10;0.10;;;8.60;99.90;;;8.59;100.00;100338.66;4944502;29;20236;-79
2022/12/25 00:36:21;;;;;;;0.20;0.20;;;8.60;99.90;;;8.60;100.00;100335.16;4951078;29;20261;-79
2022/12/25 00:38:48;;;;;;;0.10;0.10;;;8.60;99.90;;;8.59;100.00;100333.38;4951372;29;20284;-79
2022/12/25 00:42:17;;;;;;;0.10;0.10;;;8.60;99.90;;;8.57;100.00;100334.22;4950308;29;20324;-79
2022/12/25 00:44:09;;;;;;;0.20;0.20;;;8.60;99.90;;;8.57;100.00;100336.88;4950661;28;20241;-78
2022/12/25 00:46:36;;;;;;;0.00;0.00;;;8.60;99.90;;;8.53;100.00;100337.69;4953926;29;20237;-78
2022/12/25 00:49:03;;;;;;;0.00;0.00;;;8.50;99.90;;;8.51;100.00;100332.38;4928698;29;20301;-80
2022/12/25 00:51:31;;;;;;;0.10;0.10;;;8.50;99.90;;;8.52;100.00;100325.38;4936284;29;20242;-79
2022/12/25 00:53:59;;;;;;;0.55;0.55;;;8.50;99.90;;;8.49;100.00;100331.47;4935935;29;20313;-79
2022/12/25 00:56:26;;;;;;;0.10;0.10;;;8.50;99.90;;;8.54;100.00;100327.16;4936087;29;20238;-79
2022/12/25 00:58:54;;;;;;;0.10;0.10;;;8.50;99.90;;;8.51;100.00;100328.88;4936458;29;20257;-80
2022/12/25 01:01:21;;;;;;;0.10;0.10;;;8.50;99.90;;;8.50;100.00;100330.63;4935676;29;20664;-79
2022/12/25 01:03:48;;;;;;;0.10;0.10;;;8.50;99.90;;;8.50;100.00;100329.72;4935941;29;20230;-79
2022/12/25 01:06:15;;;;;;;0.10;0.10;;;8.50;99.90;;;8.50;100.00;100329.72;4930068;29;20242;-79
2022/12/25 01:11:30;;;;;;;1.05;1.05;;;8.50;99.90;;;8.51;100.00;100337.66;4935712;29;20292;-80
2022/12/25 01:13:57;;;;;;;0.10;0.10;;;8.50;99.90;;;8.50;100.00;100345.53;4935882;29;20234;-79
2022/12/25 01:16:25;;;;;;;0.28;0.28;;;8.50;99.90;;;8.47;100.00;100343.75;4918870;29;20234;-79
2022/12/25 01:18:52;;;;;;;0.10;0.10;;;8.50;99.90;;;8.52;100.00;100351.72;4935666;29;20320;-79
2022/12/25 01:21:20;;;;;;;0.10;0.10;;;8.50;99.90;;;8.50;100.00;100351.69;4935552;29;20265;-79
2022/12/25 01:23:49;;;;;;;0.10;0.10;;;8.50;99.90;;;8.44;100.00;100353.34;4935239;29;20238;-79
2022/12/25 01:26:19;;;;;;;0.13;0.13;;;8.50;99.90;;;8.47;100.00;100359.56;4935271;29;20230;-79
2022/12/25 01:28:49;;;;;;;0.10;0.10;;;8.50;99.90;;;8.42;100.00;100353.31;4950349;29;20313;-79
2022/12/25 01:31:19;;;;;;;0.05;0.05;;;8.40;99.90;;;8.38;100.00;100358.53;4936141;29;20238;-79
2022/12/25 01:33:47;;;;;;;0.10;0.10;;;8.40;99.90;;;8.33;100.00;100363.72;4935571;29;20253;-79
2022/12/25 01:36:18;;;;;;;0.00;0.00;;;8.30;99.90;;;8.34;100.00;100366.38;4903076;29;20266;-78
2022/12/25 01:38:46;;;;;;;0.30;0.30;;;8.30;99.90;;;8.38;100.00;100379.59;4939585;29;20304;-80
2022/12/25 01:41:15;;;;;;;0.00;0.00;;;8.30;99.90;;;8.42;100.00;100381.44;4947828;29;20289;-79
2022/12/25 01:44:15;;;;;;;0.20;0.20;;;8.30;99.90;;;8.39;100.00;100377.00;4930191;29;20237;-78
2022/12/25 01:46:43;;;;;;;0.00;0.00;;;8.40;99.90;;;8.38;100.00;100371.69;4922736;29;20269;-78
2022/12/25 01:49:21;;;;;;;0.10;0.10;;;8.40;99.90;;;8.35;100.00;100372.53;4939900;29;20234;-79
2022/12/25 01:51:56;;;;;;;0.17;0.17;;;8.30;99.90;;;8.36;100.00;100368.16;4918246;29;20233;-78
2022/12/25 01:54:31;;;;;;;0.03;0.03;;;8.30;99.90;;;8.30;100.00;100359.25;4918337;29;20241;-78
2022/12/25 01:57:01;;;;;;;0.00;0.00;;;8.30;99.90;;;8.32;100.00;100359.28;4918089;29;20234;-79
2022/12/25 01:59:29;;;;;;;0.10;0.10;;;8.30;99.90;;;8.28;100.00;100360.06;4920235;29;20698;-78
2022/12/25 02:01:57;;;;;;;0.05;0.05;;;8.30;99.90;;;8.28;100.00;100357.44;4930055;29;20234;-78
2022/12/25 02:04:37;;;;;;;0.10;0.10;;;8.30;99.90;;;8.15;100.00;100350.19;4917335;29;20253;-79
2022/12/25 02:07:10;;;;;;;0.00;0.00;;;8.20;99.90;;;8.12;100.00;100347.50;4934632;29;20233;-78
2022/12/25 02:09:37;;;;;;;0.10;0.10;;;8.10;99.90;;;8.13;100.00;100347.53;4926160;29;20313;-79
2022/12/25 02:12:07;;;;;;;0.20;0.20;;;8.10;99.90;;;8.14;100.00;100358.94;4933937;29;20294;-80
2022/12/25 02:14:36;;;;;;;0.00;0.00;;;8.10;99.90;;;8.20;100.00;100359.06;4917033;29;20687;-79
2022/12/25 02:17:33;;;;;;;0.10;0.10;;;8.20;99.90;;;8.12;100.00;100356.28;4917718;29;20246;-78
2022/12/25 02:20:36;;;;;;;0.32;0.32;;;8.10;99.90;;;8.14;100.00;100361.59;4948163;29;20230;-78
2022/12/25 02:23:25;;;;;;;0.00;0.00;;;8.10;99.90;;;8.01;100.00;100355.22;4952320;29;20438;-79
2022/12/25 02:26:17;;;;;;;0.10;0.10;;;8.00;99.90;;;7.96;100.00;100343.72;4952683;29;20241;-78
2022/12/25 02:29:38;;;;;;;0.35;0.35;;;8.00;99.90;;;7.95;100.00;100352.47;4943194;29;20230;-80
2022/12/25 02:32:38;;;;;;;0.10;0.10;;;7.90;99.90;;;7.96;100.00;100351.63;4864633;29;20305;-78
2022/12/25 02:35:16;;;;;;;0.10;0.10;;;8.00;99.90;;;7.90;100.00;100338.34;4942232;29;20234;-79
2022/12/25 02:38:09;;;;;;;0.20;0.20;;;7.90;99.90;;;7.77;100.00;100339.81;4936536;29;20237;-78
2022/12/25 02:40:47;;;;;;;0.10;0.10;;;7.80;99.90;;;7.64;100.00;100333.44;4935926;29;20249;-78
2022/12/25 03:06:45;;;;;;;0.10;0.10;;;7.60;99.90;;;7.68;100.00;100276.47;4952937;29;20261;-79
2022/12/25 03:12:20;;;;;;;0.10;0.10;;;7.60;99.90;;;7.51;100.00;100272.66;4938447;29;20230;-79
2022/12/25 03:17:34;;;;;;;0.10;0.10;;;7.50;99.90;;;7.33;100.00;100263.56;4933823;29;20264;-79
2022/12/25 03:28:20;;;;;;;0.17;0.17;;;7.40;99.90;;;7.26;100.00;100264.28;4946930;29;20742;-79
2022/12/25 03:31:12;;;;;;;0.15;0.15;;;7.30;99.90;;;7.45;100.00;100276.06;4929982;29;20258;-79
2022/12/25 03:37:33;;;;;;;0.20;0.20;;;7.50;99.90;;;7.52;100.00;100272.69;4952328;29;20257;-78
2022/12/25 04:37:44;;;;;;;0.10;0.10;;;7.70;99.90;;;7.76;100.00;100250.28;4933144;29;20234;-79
2022/12/25 04:40:12;;;;;;;0.00;0.00;;;7.70;99.90;;;7.76;100.00;100245.03;4933703;29;20286;-79
2022/12/25 04:42:39;;;;;;;0.03;0.03;;;7.80;99.90;;;7.79;100.00;100234.56;4916932;29;20234;-80
2022/12/25 04:45:07;;;;;;;0.15;0.15;;;7.80;99.90;;;7.80;100.00;100244.22;4933003;29;20289;-80
2022/12/25 04:47:34;;;;;;;0.10;0.10;;;7.80;99.90;;;7.80;100.00;100249.50;4916733;29;20253;-80
2022/12/25 04:50:02;;;;;;;0.15;0.15;;;7.80;99.90;;;7.81;100.00;100249.53;4941346;29;20691;-79
2022/12/25 04:52:34;;;;;;;0.10;0.10;;;7.80;99.90;;;7.84;100.00;100240.81;4933101;29;20227;-79
2022/12/25 04:55:01;;;;;;;0.00;0.00;;;7.90;99.90;;;7.83;100.00;100241.69;4934069;29;20270;-79
2022/12/25 04:57:28;;;;;;;0.10;0.10;;;7.80;99.90;;;7.84;100.00;100243.44;4943224;29;20284;-79
2022/12/25 04:59:55;;;;;;;0.10;0.10;;;7.90;99.90;;;7.85;100.00;100246.09;4944500;29;20758;-79
2022/12/25 05:02:22;;;;;;;0.10;0.10;;;7.90;99.90;;;7.86;100.00;100255.78;4932838;29;20265;-79
2022/12/25 05:04:49;;;;;;;0.10;0.10;;;7.90;99.90;;;7.85;100.00;100250.50;4932284;29;20240;-79
2022/12/25 05:07:16;;;;;;;0.10;0.10;;;7.90;99.90;;;7.84;100.00;100243.44;4932885;29;20253;-79
2022/12/25 05:09:43;;;;;;;0.00;0.00;;;7.90;99.90;;;7.91;100.00;100247.97;4936318;29;20222;-83
2022/12/25 05:12:12;;;;;;;0.10;0.10;;;7.90;99.90;;;7.92;100.00;100252.38;4945234;28;20258;-79
2022/12/25 05:14:40;;;;;;;0.10;0.10;;;7.90;99.90;;;7.91;100.00;100259.38;4913571;29;20319;-79
2022/12/25 05:17:07;;;;;;;0.10;0.10;;;7.90;99.90;;;7.90;100.00;100254.97;4913560;29;20231;-80
2022/12/25 05:19:34;;;;;;;0.10;0.10;;;7.90;99.90;;;7.93;100.00;100249.75;4913911;29;20299;-79
2022/12/25 05:22:01;;;;;;;0.10;0.10;;;8.00;99.90;;;7.93;100.00;100254.13;4946597;29;20237;-80
2022/12/25 05:24:28;;;;;;;0.22;0.22;;;8.00;99.90;;;7.94;100.00;100253.28;4951504;29;20296;-79
2022/12/25 05:26:55;;;;;;;0.10;0.10;;;8.00;99.90;;;7.93;100.00;100259.41;4951848;29;20253;-79
2022/12/25 05:29:22;;;;;;;0.17;0.17;;;7.90;99.90;;;7.91;100.00;100251.47;4939918;29;20704;-80
2022/12/25 05:31:49;;;;;;;0.10;0.10;;;7.90;99.90;;;7.93;100.00;100257.66;4933608;29;20235;-79
2022/12/25 05:34:16;;;;;;;0.10;0.10;;;8.00;99.90;;;7.92;100.00;100257.63;4947670;29;20233;-79
2022/12/25 05:36:43;;;;;;;0.35;0.35;;;8.00;99.90;;;7.95;100.00;100261.19;4938778;29;20234;-83
2022/12/25 05:39:10;;;;;;;0.08;0.08;;;8.00;99.90;;;7.96;100.00;100259.44;4954899;29;20269;-79
2022/12/25 05:41:37;;;;;;;0.10;0.10;;;8.00;99.90;;;7.99;100.00;100260.38;4954779;29;20310;-79
2022/12/25 05:44:04;;;;;;;1.27;0.35;;;8.00;99.90;;;8.01;100.00;100256.03;4935518;29;20234;-80
2022/12/25 05:46:31;;;;;;;0.22;0.22;;;8.00;99.90;;;7.99;100.00;100257.75;4935629;29;20245;-79
2022/12/25 05:48:59;;;;;;;0.10;0.10;;;8.00;99.90;;;7.99;100.00;100263.03;4926461;29;20332;-80
2022/12/25 05:51:26;;;;;;;0.00;0.00;;;8.00;99.90;;;7.97;100.00;100266.50;4942546;28;20238;-79
2022/12/25 05:53:53;;;;;;;0.20;0.20;;;8.00;99.90;;;7.97;100.00;100271.75;4935489;29;20234;-79
2022/12/25 05:56:20;;;;;;;0.10;0.10;;;8.00;99.90;;;7.98;100.00;100281.44;4935281;29;20242;-79
2022/12/25 05:58:47;;;;;;;0.30;0.20;;;8.00;99.90;;;7.92;100.00;100283.97;4935228;29;20235;-79
2022/12/25 06:01:29;;;;;;;0.05;0.05;;;8.00;99.90;;;7.90;100.00;100276.03;4934697;29;20285;-80
2022/12/25 06:04:05;;;;;;;0.20;0.20;;;8.00;99.90;;;7.93;100.00;100283.97;4935012;29;20234;-79
2022/12/25 06:06:39;;;;;;;0.10;0.10;;;8.00;99.90;;;7.93;100.00;100280.47;4935364;29;20227;-80
2022/12/25 06:09:06;;;;;;;0.10;0.10;;;7.90;99.90;;;7.98;100.00;100287.59;4935213;29;20305;-79
2022/12/25 06:11:33;;;;;;;0.00;0.00;;;8.00;99.90;;;7.99;100.00;100289.34;4935455;29;20235;-79
2022/12/25 06:14:00;;;;;;;0.30;0.30;;;8.00;99.90;;;8.03;100.00;100295.56;4941408;29;20234;-79
2022/12/25 06:16:27;;;;;;;0.65;0.65;;;8.00;99.90;;;8.00;100.00;100290.25;4954117;28;20706;-79
2022/12/25 06:19:03;;;;;;;0.10;0.10;;;8.00;99.90;;;8.01;100.00;100292.91;4953790;28;20229;-79
2022/12/25 06:21:30;;;;;;;0.10;0.10;;;8.00;99.90;;;8.00;100.00;100279.72;4954002;29;20234;-79
2022/12/25 06:23:59;;;;;;;0.65;0.65;;;8.00;99.90;;;7.99;100.00;100277.94;4936602;29;20362;-80
2022/12/25 06:26:27;;;;;;;0.10;0.10;;;8.00;99.90;;;7.98;100.00;100277.06;4953488;29;20253;-79
2022/12/25 06:28:54;;;;;;;0.10;0.10;;;8.00;99.90;;;7.98;100.00;100279.69;4953247;29;20237;-79
2022/12/25 06:31:22;;;;;;;0.20;0.20;;;8.00;99.90;;;7.98;100.00;100286.69;4938632;28;20798;-79
2022/12/25 06:33:50;;;;;;;0.10;0.10;;;8.00;99.90;;;7.96;100.00;100284.03;4917389;29;20325;-80
2022/12/25 06:36:28;;;;;;;0.90;0.90;;;8.00;99.90;;;7.98;100.00;100284.06;4933644;29;20245;-79
2022/12/25 06:38:55;;;;;;;0.10;0.10;;;8.00;99.90;;;7.96;100.00;100285.78;4917459;29;20234;-80
2022/12/25 06:41:26;;;;;;;0.00;0.00;;;8.00;99.90;;;7.98;100.00;100277.06;4917179;29;20254;-80
2022/12/25 06:43:59;;;;;;;0.10;0.10;;;8.00;99.90;;;7.96;100.00;100280.53;4932875;29;20305;-79
2022/12/25 06:46:29;;;;;;;0.30;0.30;;;8.00;99.90;;;7.92;100.00;100283.97;4933792;29;20312;-79
2022/12/25 06:48:57;;;;;;;0.10;0.10;;;8.00;99.90;;;7.91;100.00;100290.97;4934045;29;20321;-80
2022/12/25 06:51:30;;;;;;;0.10;0.10;;;8.00;99.90;;;7.95;100.00;100297.19;4933697;29;20234;-79
2022/12/25 06:53:58;;;;;;;0.88;0.88;;;8.00;99.90;;;7.93;100.00;100297.16;4916574;29;20727;-80
2022/12/25 06:56:27;;;;;;;0.10;0.10;;;8.00;99.90;;;7.92;100.00;100300.66;4937393;29;20261;-80
2022/12/25 06:59:00;;;;;;;0.20;0.20;;;8.00;99.90;;;7.98;100.00;100313.03;4953709;29;20238;-80
2022/12/25 07:01:39;;;;;;;0.10;0.10;;;8.00;99.90;;;7.97;100.00;100317.41;4944161;29;20281;-80
2022/12/25 07:04:16;;;;;;;0.10;0.10;;;8.00;99.90;;;8.00;100.00;100309.56;4934449;29;20313;-80
2022/12/25 07:06:43;;;;;;;0.10;0.10;;;8.00;99.90;;;7.97;100.00;100301.59;4936733;29;20249;-79
2022/12/25 07:09:10;;;;;;;0.10;0.10;;;8.00;99.90;;;7.94;100.00;100291.03;4942186;29;20237;-80
2022/12/25 07:11:37;;;;;;;0.10;0.10;;;8.00;99.90;;;7.96;100.00;100283.16;4935183;29;20245;-79
2022/12/25 07:14:04;;;;;;;0.20;0.20;;;8.00;99.90;;;8.02;100.00;100289.41;4934079;29;20281;-80
2022/12/25 07:16:31;;;;;;;0.10;0.10;;;8.00;99.90;;;7.96;100.00;100281.41;4917836;29;20319;-79
2022/12/25 07:19:00;;;;;;;0.10;0.10;;;8.00;99.90;;;7.91;100.00;100276.91;4948027;29;20234;-80
2022/12/25 07:21:27;;;;;;;0.10;0.10;;;7.90;99.90;;;7.93;100.00;100280.47;4951254;29;20233;-80
2022/12/25 07:23:54;;;;;;;0.00;0.00;;;8.00;99.90;;;7.90;100.00;100280.41;4935206;29;20321;-79
2022/12/25 07:26:21;;;;;;;0.10;0.10;;;7.90;99.90;;;7.89;100.00;100278.63;4935215;29;20245;-80
2022/12/25 07:28:49;;;;;;;0.10;0.10;;;7.90;99.90;;;7.89;100.00;100279.53;4923121;29;20230;-79
2022/12/25 07:31:17;;;;;;;0.10;0.10;;;7.90;99.90;;;7.92;100.00;100287.47;4933783;29;20253;-80
2022/12/25 07:33:44;;;;;;;0.30;0.30;;;7.90;99.90;;;7.92;100.00;100286.59;4944313;29;20309;-80
2022/12/25 07:36:12;;;;;;;0.25;0.25;;;8.00;99.90;;;7.87;100.00;100285.63;4936783;29;20234;-81
2022/12/25 07:38:42;;;;;;;0.32;0.32;;;7.90;99.90;;;7.91;100.00;100296.25;4941942;29;20300;-79
2022/12/25 07:41:11;;;;;;;0.00;0.00;;;7.90;99.90;;;7.93;100.00;100299.78;4946623;29;20230;-80
2022/12/25 07:43:39;;;;;;;0.00;0.00;;;8.00;99.90;;;7.92;100.00;100299.75;4934226;29;20246;-80
2022/12/25 07:46:06;;;;;;;0.10;0.10;;;8.00;99.90;;;7.91;100.00;100305.88;4925519;29;20237;-80
2022/12/25 07:48:35;;;;;;;0.00;0.00;;;7.90;99.90;;;7.93;100.00;100312.06;4952814;29;20256;-80
2022/12/25 07:51:06;;;;;;;0.10;0.10;;;8.00;99.90;;;7.95;100.00;100318.25;4948509;29;20226;-79
2022/12/25 07:53:34;;;;;;;0.30;0.30;;;8.00;99.90;;;7.95;100.00;100327.03;4933198;29;20238;-80
2022/12/25 07:56:14;;;;;;;0.10;0.10;;;8.00;99.90;;;7.98;100.00;100323.56;4933258;29;20234;-80
2022/12/25 07:58:43;;;;;;;0.10;0.10;;;8.00;99.90;;;7.98;100.00;100326.19;4915279;29;20227;-79
2022/12/25 08:01:22;;;;;;;0.00;0.00;;;8.00;99.90;;;7.95;100.00;100319.13;4927435;29;20226;-80
2022/12/25 08:04:00;;;;;;;0.10;0.10;;;8.00;99.90;;;7.99;100.00;100323.59;4931359;29;20355;-79
2022/12/25 08:06:35;;;;;;;0.10;0.10;;;8.00;99.90;;;7.93;100.00;100322.59;4937531;29;20221;-80
2022/12/25 08:09:10;;;;;;;0.65;0.65;;;8.00;99.90;;;7.90;100.00;100315.53;4928192;29;20232;-81
2022/12/25 08:11:38;;;;;;;0.10;0.10;;;7.90;99.90;;;7.95;100.00;100320.88;4935290;28;20766;-79
2022/12/25 08:14:07;;;;;;;0.10;0.10;;;8.00;99.90;;;7.98;100.00;100320.94;4945703;28;20233;-80
2022/12/25 08:16:34;;;;;;;0.00;0.00;;;8.00;99.90;;;7.99;100.00;100320.97;4952247;29;20304;-80
2022/12/25 08:19:02;;;;;;;0.10;0.10;;;8.00;99.90;;;8.01;100.00;100340.31;4948970;29;20666;-80
2022/12/25 08:21:29;;;;;;;0.10;0.10;;;8.00;99.90;;;8.03;100.00;100350.88;4941480;29;20288;-79
2022/12/25 08:23:56;;;;;;;0.10;0.10;;;8.10;99.90;;;8.02;100.00;100346.47;4940518;28;20254;-80
2022/12/25 08:26:23;;;;;;;1.33;1.23;;;8.10;99.90;;;8.04;100.00;100336.84;4913803;29;20237;-78
2022/12/25 08:28:51;;;;;;;0.20;0.20;;;8.00;99.90;;;8.07;100.00;100326.34;4934456;29;20230;-79
2022/12/25 08:31:28;;;;;;;0.15;0.15;;;8.10;99.90;;;8.09;100.00;100323.75;4931685;29;20239;-80
2022/12/25 08:33:57;;;;;;;0.20;0.20;;;8.10;99.90;;;8.11;100.00;100309.75;4932425;29;20226;-84
2022/12/25 08:36:25;;;;;;;0.10;0.10;;;8.10;99.90;;;8.13;100.00;100299.22;4923186;29;20230;-79
2022/12/25 08:38:53;;;;;;;0.13;0.13;;;8.10;99.90;;;8.15;100.00;100302.78;4931930;29;20663;-80
2022/12/25 08:41:30;;;;;;;0.10;0.10;;;8.20;99.90;;;8.16;100.00;100300.16;4927483;29;20659;-80
2022/12/25 08:43:57;;;;;;;0.10;0.10;;;8.20;99.90;;;8.21;100.00;100313.41;4929660;28;20294;-81
2022/12/25 08:46:24;;;;;;;0.10;0.10;;;8.20;99.90;;;8.24;100.00;100314.34;4929165;29;20254;-79
2022/12/25 08:48:51;;;;;;;0.10;0.10;;;8.30;99.90;;;8.27;100.00;100311.78;4933125;29;20226;-79
2022/12/25 08:51:23;;;;;;;0.30;0.30;;;8.30;99.90;;;8.33;100.00;100327.72;4929671;29;20372;-79
2022/12/25 08:53:56;;;;;;;0.10;0.10;;;8.40;99.90;;;8.37;100.00;100326.00;4904002;29;20259;-78
2022/12/25 08:56:23;;;;;;;0.10;0.10;;;8.40;99.90;;;8.39;100.00;100340.09;4912076;29;20235;-79
2022/12/25 08:58:50;;;;;;;0.10;0.10;;;8.40;99.90;;;8.42;100.00;100336.63;4913270;29;20235;-78
2022/12/25 09:01:17;;;;;;;0.10;0.10;;;8.40;99.90;;;8.45;100.00;100347.22;4942638;29;20650;-78
2022/12/25 09:03:45;;;;;;;0.10;0.10;;;8.40;99.90;;;8.43;100.00;100344.56;4921990;29;20246;-79
2022/12/25 09:06:14;;;;;;;0.05;0.05;;;8.50;99.90;;;8.44;100.00;100353.34;4931580;29;20231;-78
2022/12/25 09:08:43;;;;;;;0.10;0.10;;;8.50;99.90;;;8.46;100.00;100356.91;4943118;29;20230;-78
2022/12/25 09:11:18;;;;;;;0.10;0.10;;;8.50;99.90;;;8.52;100.00;100352.59;4954136;29;20233;-79
2022/12/25 09:13:46;;;;;;;0.10;0.10;;;8.50;99.90;;;8.60;100.00;100365.91;4913819;29;20321;-78
2022/12/25 09:16:19;;;;;;;0.10;0.10;;;8.60;99.90;;;8.65;100.00;100362.47;4943603;29;20291;-77
2022/12/25 09:18:47;;;;;;;0.10;0.10;;;8.70;99.90;;;8.71;100.00;100360.81;4919211;28;20222;-78
2022/12/25 09:21:16;;;;;;;0.43;0.43;;;8.70;99.90;;;8.75;100.00;100359.97;4945634;28;20234;-81
2022/12/25 09:23:44;;;;;;;0.95;0.95;;;8.80;99.90;;;8.82;100.00;100357.47;4941235;29;20237;-77
2022/12/25 09:26:15;;;;;;;0.00;0.00;;;8.80;99.90;;;8.89;100.00;100353.16;4936494;29;20802;-77
2022/12/25 09:28:43;;;;;;;0.10;0.10;;;8.80;99.90;;;9.02;100.00;100359.50;4934979;29;20233;-79
2022/12/25 09:31:20;;;;;;;0.15;0.15;;;9.00;99.90;;;9.07;100.00;100358.69;4935478;29;20586;-78
2022/12/25 09:33:48;;;;;;;0.10;0.10;;;9.00;99.90;;;9.17;100.00;100362.38;4917520;29;20241;-78
2022/12/25 09:36:15;;;;;;;0.20;0.20;;;9.10;99.90;;;9.19;100.00;100355.38;4933088;29;20246;-78
2022/12/25 09:38:42;;;;;;;0.10;0.10;;;9.20;99.90;;;9.18;100.00;100359.75;4934078;29;20226;-78
2022/12/25 09:41:21;;;;;;;0.10;0.10;;;9.20;99.90;;;9.19;100.00;100352.72;4916886;29;20234;-78
2022/12/25 09:43:54;;;;;;;0.98;0.40;;;9.20;99.90;;;9.18;100.00;100351.84;4932606;29;20238;-78
2022/12/25 09:46:25;;;;;;;0.10;0.10;;;9.20;99.90;;;9.22;100.00;100353.66;4918055;29;20293;-78
2022/12/25 09:49:10;;;;;;;0.10;0.10;;;9.20;99.90;;;9.33;100.00;100347.63;4935134;29;20323;-79
2022/12/25 09:51:41;;;;;;;0.22;0.22;;;9.30;99.90;;;9.41;100.00;100352.13;4935228;29;20249;-78
2022/12/25 09:54:21;;;;;;;0.10;0.10;;;9.40;99.90;;;9.53;100.00;100354.03;4917622;29;20234;-78
2022/12/25 09:56:48;;;;;;;0.10;0.10;;;9.50;99.90;;;9.54;100.00;100345.25;4919305;29;20612;-78
2022/12/25 09:59:24;;;;;;;0.65;0.65;;;9.50;99.90;;;9.63;100.00;100353.28;4935338;29;20246;-78
2022/12/25 10:02:36;;;;;;;0.00;0.00;;;9.60;99.90;;;9.59;100.00;100347.06;4923650;29;20225;-78
2022/12/25 10:05:16;;;;;;;0.00;0.00;;;9.60;99.90;;;9.75;100.00;100360.44;4919862;29;20242;-78
2022/12/25 10:08:08;;;;;;;0.10;0.10;;;9.70;99.90;;;9.78;100.00;100353.44;4915909;29;20258;-78
2022/12/25 10:10:50;;;;;;;0.10;0.10;;;9.70;99.90;;;9.76;100.00;100352.53;4929852;29;20230;-78
2022/12/25 10:13:39;;;;;;;0.10;0.10;;;9.70;99.90;;;9.85;100.00;100341.19;4932606;29;20296;-77
2022/12/25 10:16:50;;;;;;;0.00;0.00;;;9.80;99.90;;;9.86;100.00;100342.97;4933101;29;20313;-78
2022/12/25 10:19:41;;;;;;;0.10;0.10;;;9.90;99.90;;;9.94;100.00;100347.47;4932253;29;20243;-78
2022/12/25 10:22:22;;;;;;;0.10;0.10;;;9.90;99.90;;;10.00;100.00;100343.09;4932925;29;20235;-77
2022/12/25 10:24:52;;;;;;;0.08;0.08;;;10.00;99.90;;;10.12;100.00;100346.75;4905275;29;20281;-78
2022/12/25 10:27:37;;;;;;;0.30;0.30;;;10.10;99.90;;;10.26;100.00;100354.84;4914136;29;20293;-77
2022/12/25 10:30:26;;;;;;;0.10;0.10;;;10.20;99.90;;;10.06;100.00;100337.88;4932237;29;20370;-77
2022/12/25 10:32:56;;;;;;;0.40;0.40;;;10.10;99.90;;;10.07;100.00;100342.28;4927482;29;20286;-77
2022/12/25 10:35:27;;;;;;;0.10;0.10;;;10.10;99.90;;;9.98;100.00;100337.81;4914606;29;20254;-78
2022/12/25 10:38:01;;;;;;;0.22;0.22;;;10.00;99.90;;;9.93;100.00;100323.66;4917981;29;20289;-79
2022/12/25 10:41:18;;;;;;;0.10;0.10;;;9.90;99.90;;;9.92;100.00;100324.53;4934451;29;20237;-78
2022/12/25 10:43:50;;;;;;;0.10;0.10;;;9.90;99.90;;;9.92;100.00;100324.53;4913722;29;20338;-78
2022/12/25 10:46:19;;;;;;;0.93;0.93;;;9.90;99.90;;;9.95;100.00;100325.44;4897716;29;20246;-78
2022/12/25 10:48:49;;;;;;;0.30;0.30;;;9.90;99.90;;;10.00;100.00;100311.41;4897992;29;20227;-78
2022/12/25 10:51:36;;;;;;;0.00;0.00;;;10.00;99.90;;;10.06;100.00;100308.81;4910050;29;20290;-77
2022/12/25 10:54:24;;;;;;;0.20;0.20;;;10.00;99.90;;;10.12;100.00;100308.88;4901004;29;20250;-78
2022/12/25 10:56:57;;;;;;;0.10;0.10;;;10.10;99.90;;;10.18;100.00;100308.91;4933657;29;20317;-77
2022/12/25 10:59:27;;;;;;;0.00;0.00;;;10.10;99.90;;;10.22;100.00;100313.41;4933600;29;20237;-77
2022/12/25 11:02:28;;;;;;;0.00;0.00;;;10.20;99.90;;;10.30;100.00;100306.41;4931789;29;20242;-77
2022/12/25 11:05:07;;;;;;;0.80;0.80;;;10.30;99.90;;;10.39;100.00;100318.81;4900126;29;20234;-77
2022/12/25 11:07:53;;;;;;;0.15;0.15;;;10.30;99.90;;;10.43;100.00;100302.13;4932788;29;20225;-77
2022/12/25 11:10:36;;;;;;;0.35;0.35;;;10.40;99.90;;;10.49;100.00;100311.00;4934849;28;20234;-78
2022/12/25 11:13:17;;;;;;;0.10;0.10;;;10.40;99.90;;;10.47;100.00;100296.00;4936060;29;20276;-77
2022/12/25 11:15:47;;;;;;;0.00;0.00;;;10.40;99.90;;;10.43;100.00;100283.63;4931745;29;20234;-77
2022/12/25 11:18:25;;;;;;;0.40;0.40;;;10.40;99.90;;;10.46;100.00;100284.53;4929687;28;20230;-78
2022/12/25 11:21:00;;;;;;;0.03;0.03;;;10.40;99.90;;;10.50;100.00;100275.75;4913498;29;20277;-77
2022/12/25 11:23:31;;;;;;;0.08;0.08;;;10.50;99.90;;;10.61;100.00;100278.47;4928576;29;20237;-78
2022/12/25 11:26:01;;;;;;;0.00;0.00;;;10.50;99.90;;;10.70;100.00;100272.34;4925956;29;20233;-78
2022/12/25 11:28:36;;;;;;;0.00;0.00;;;10.60;99.90;;;10.80;100.00;100271.53;4940703;28;20285;-77
2022/12/25 11:31:18;;;;;;;0.20;0.20;;;10.70;99.90;;;10.86;100.00;100263.63;4909622;29;20229;-78
2022/12/25 11:33:59;;;;;;;0.05;0.05;;;10.80;99.90;;;10.87;100.00;100257.47;4949119;29;20229;-78
2022/12/25 11:36:38;;;;;;;0.10;0.10;;;10.80;99.90;;;10.77;100.00;100239.78;4920794;28;20230;-78
2022/12/25 11:39:30;;;;;;;0.10;0.10;;;10.80;99.90;;;10.85;100.00;100249.50;4927262;28;20266;-78
2022/12/25 11:42:13;;;;;;;0.00;0.00;;;10.80;99.90;;;11.12;100.00;100261.09;4957801;28;20755;-78
2022/12/25 11:44:53;;;;;;;0.30;0.30;;;11.00;99.90;;;11.11;100.00;100232.88;4942260;28;20864;-77
2022/12/25 11:47:34;;;;;;;0.10;0.10;;;11.10;99.90;;;11.05;100.00;100223.13;4915704;28;20309;-78
2022/12/25 11:50:19;;;;;;;0.15;0.15;;;11.00;99.90;;;11.09;100.00;100218.75;4946986;28;20237;-77
2022/12/25 11:52:48;;;;;;;0.75;0.75;;;11.00;99.90;;;11.27;100.00;100221.44;4932167;29;20237;-78
2022/12/25 11:55:22;;;;;;;0.00;0.00;;;11.10;99.90;;;11.32;100.00;100213.50;4915286;29;20234;-78
2022/12/25 11:57:56;;;;;;;0.10;0.10;;;11.30;99.90;;;11.45;100.00;100225.91;4915458;29;20221;-78
2022/12/25 12:00:23;;;;;;;0.00;0.00;;;11.30;99.90;;;11.81;100.00;100235.72;4915836;29;20649;-78
2022/12/25 12:03:00;;;;;;;0.00;0.00;;;11.60;99.90;;;11.73;100.00;100222.44;4915372;29;20305;-78
2022/12/25 12:05:43;;;;;;;0.03;0.03;;;11.70;99.90;;;11.81;100.00;100215.41;4915233;29;20328;-78
2022/12/25 12:08:10;;;;;;;0.13;0.13;;;11.80;99.90;;;11.95;100.00;100215.41;4931037;29;20241;-78
2022/12/25 12:11:14;;;;;;;0.00;0.00;;;11.80;99.90;;;12.03;100.00;100203.03;4932465;29;20222;-78
2022/12/25 12:14:09;;;;;;;0.00;0.00;;;12.00;99.90;;;12.47;100.00;100220.66;4932049;29;20230;-78
2022/12/25 12:16:36;;;;;;;0.08;0.08;;;12.20;99.90;;;12.23;100.00;100200.38;4931820;29;20238;-77
2022/12/25 12:19:33;;;;;;;0.10;0.10;;;12.20;99.90;;;12.40;100.00;100206.53;4932743;29;20394;-78
2022/12/25 12:22:02;;;;;;;0.00;0.00;;;12.20;99.90;;;12.61;100.00;100218.84;4951310;29;20226;-78
2022/12/25 12:24:41;;;;;;;0.90;0.90;;;12.50;99.90;;;12.54;100.00;100198.53;4932891;29;20249;-78